createdAt,value
2023-04-21T00:01:08.636Z,98192.94
2023-04-21T00:03:38.950Z,98191.25
2023-04-21T00:06:09.508Z,98194.00
2023-04-21T00:08:40.441Z,98194.72
2023-04-21T00:11:11.136Z,98192.69
2023-04-21T00:13:40.320Z,98190.34
2023-04-21T00:16:09.549Z,98193.22
2023-04-21T00:18:38.748Z,98192.47
2023-04-21T00:21:07.727Z,98188.84
2023-04-21T00:23:36.836Z,98190.13
2023-04-21T00:26:05.941Z,98185.28
2023-04-21T00:28:36.383Z,98181.69
2023-04-21T00:31:06.703Z,98182.88
2023-04-21T00:33:35.875Z,98178.94
2023-04-21T00:36:05.657Z,98180.06
2023-04-21T00:38:34.796Z,98178.47
2023-04-21T00:41:03.918Z,98182.34
2023-04-21T00:43:33.089Z,98182.72
2023-04-21T00:46:03.589Z,98180.38
2023-04-21T00:48:32.668Z,98176.03
2023-04-21T00:51:01.738Z,98173.16
2023-04-21T00:53:31.276Z,98172.53
2023-04-21T00:56:03.390Z,98178.88
2023-04-21T00:58:34.011Z,98171.94
2023-04-21T01:01:05.516Z,98173.84
2023-04-21T01:03:34.720Z,98175.41
2023-04-21T01:06:06.216Z,98165.81
2023-04-21T01:08:36.125Z,98168.38
2023-04-21T01:11:12.202Z,98174.38
2023-04-21T01:13:42.956Z,98172.25
2023-04-21T01:16:19.239Z,98169.75
2023-04-21T01:18:48.598Z,98166.59
2023-04-21T01:21:19.573Z,98161.03
2023-04-21T01:23:50.187Z,98164.19
2023-04-21T01:26:21.383Z,98167.78
2023-04-21T01:28:53.490Z,98165.03
2023-04-21T01:31:24.217Z,98164.06
2023-04-21T01:33:53.283Z,98161.56
2023-04-21T01:36:22.411Z,98167.16
2023-04-21T01:38:56.014Z,98150.41
2023-04-21T01:41:28.118Z,98160.03
2023-04-21T01:43:57.278Z,98154.53
2023-04-21T01:46:26.827Z,98156.94
2023-04-21T01:48:55.930Z,98159.25
2023-04-21T01:51:24.972Z,98158.41
2023-04-21T01:53:55.479Z,98164.59
2023-04-21T01:56:25.972Z,98161.38
2023-04-21T01:58:55.047Z,98155.53
2023-04-21T02:01:24.115Z,98163.16
2023-04-21T02:03:53.381Z,98157.53
2023-04-21T02:06:22.706Z,98152.41
2023-04-21T02:08:51.710Z,98163.06
2023-04-21T02:11:22.289Z,98151.84
2023-04-21T02:13:51.500Z,98151.09
2023-04-21T02:16:21.066Z,98151.16
2023-04-21T02:18:50.381Z,98153.59
2023-04-21T02:21:19.353Z,98148.78
2023-04-21T02:23:48.534Z,98141.53
2023-04-21T02:26:17.639Z,98149.97
2023-04-21T02:28:48.271Z,98157.28
2023-04-21T02:31:18.775Z,98150.41
2023-04-21T02:33:48.044Z,98147.44
2023-04-21T02:36:17.018Z,98145.41
2023-04-21T02:38:46.147Z,98154.72
2023-04-21T02:41:15.138Z,98161.66
2023-04-21T02:43:44.140Z,98161.63
2023-04-21T02:46:14.575Z,98157.34
2023-04-21T02:48:43.586Z,98155.03
2023-04-21T02:51:14.682Z,98159.53
2023-04-21T02:53:44.255Z,98160.34
2023-04-21T02:56:13.806Z,98160.22
2023-04-21T02:58:42.993Z,98163.78
2023-04-21T03:01:12.357Z,98157.94
2023-04-21T03:03:42.824Z,98144.44
2023-04-21T03:06:14.268Z,98155.00
2023-04-21T03:08:43.401Z,98152.25
2023-04-21T03:11:12.411Z,98153.31
2023-04-21T03:13:41.455Z,98145.84
2023-04-21T03:16:10.598Z,98147.66
2023-04-21T03:18:39.669Z,98148.06
2023-04-21T03:21:10.085Z,98153.31
2023-04-21T03:23:39.192Z,98147.78
2023-04-21T03:26:08.879Z,98150.22
2023-04-21T03:28:37.925Z,98152.69
2023-04-21T03:31:07.095Z,98145.00
2023-04-21T03:33:36.140Z,98141.31
2023-04-21T03:36:05.609Z,98139.84
2023-04-21T03:38:36.033Z,98137.31
2023-04-21T03:41:05.769Z,98142.53
2023-04-21T03:43:35.597Z,98138.13
2023-04-21T03:46:05.419Z,98139.03
2023-04-21T03:48:34.617Z,98141.47
2023-04-21T03:51:03.570Z,98141.41
2023-04-21T03:53:32.578Z,98145.31
2023-04-21T03:56:02.984Z,98140.13
2023-04-21T03:58:32.435Z,98140.53
2023-04-21T04:01:01.749Z,98142.13
2023-04-21T04:03:31.096Z,98140.19
2023-04-21T04:06:00.261Z,98144.53
2023-04-21T04:08:29.476Z,98145.94
2023-04-21T04:10:58.720Z,98147.50
2023-04-21T04:13:29.759Z,98156.50
2023-04-21T04:15:59.791Z,98150.09
2023-04-21T04:18:28.898Z,98157.25
2023-04-21T04:20:57.857Z,98162.91
2023-04-21T04:23:27.979Z,98163.47
2023-04-21T04:25:57.229Z,98170.22
2023-04-21T04:28:26.240Z,98166.66
2023-04-21T04:30:56.696Z,98175.94
2023-04-21T04:33:25.820Z,98170.31
2023-04-21T04:35:54.899Z,98178.31
2023-04-21T04:38:24.215Z,98174.38
2023-04-21T04:40:57.648Z,98171.34
2023-04-21T04:43:26.838Z,98176.97
2023-04-21T04:45:57.494Z,98180.97
2023-04-21T04:48:26.551Z,98185.88
2023-04-21T04:50:56.094Z,98195.53
2023-04-21T04:53:25.875Z,98190.41
2023-04-21T04:55:54.918Z,98198.00
2023-04-21T04:58:24.076Z,98190.50
2023-04-21T05:00:53.188Z,98198.97
2023-04-21T05:03:23.724Z,98200.63
2023-04-21T05:05:54.262Z,98200.66
2023-04-21T05:08:23.375Z,98194.34
2023-04-21T05:10:52.364Z,98198.38
2023-04-21T05:13:21.345Z,98199.19
2023-04-21T05:15:50.336Z,98200.84
2023-04-21T05:18:19.334Z,98196.84
2023-04-21T05:20:49.734Z,98195.25
2023-04-21T05:23:18.745Z,98204.44
2023-04-21T05:25:48.027Z,98207.31
2023-04-21T05:28:17.069Z,98204.63
2023-04-21T05:30:46.069Z,98207.47
2023-04-21T05:33:15.174Z,98215.06
2023-04-21T05:35:44.317Z,98215.50
2023-04-21T05:38:16.698Z,98213.94
2023-04-21T05:40:46.033Z,98207.97
2023-04-21T05:43:15.033Z,98218.78
2023-04-21T05:45:44.130Z,98214.81
2023-04-21T05:48:13.862Z,98214.81
2023-04-21T05:50:42.962Z,98214.34
2023-04-21T05:53:12.030Z,98221.09
2023-04-21T05:55:42.459Z,98220.22
2023-04-21T05:58:11.512Z,98220.94
2023-04-21T06:00:40.545Z,98225.66
2023-04-21T06:03:09.730Z,98221.53
2023-04-21T06:05:38.958Z,98227.41
2023-04-21T06:08:08.001Z,98226.13
2023-04-21T06:10:37.043Z,98226.78
2023-04-21T06:13:07.471Z,98222.31
2023-04-21T06:15:36.499Z,98230.56
2023-04-21T06:18:05.811Z,98236.06
2023-04-21T06:20:34.908Z,98234.31
2023-04-21T06:23:04.070Z,98231.09
2023-04-21T06:25:34.022Z,98228.44
2023-04-21T06:28:03.238Z,98239.47
2023-04-21T06:30:33.668Z,98235.72
2023-04-21T06:33:02.785Z,98237.50
2023-04-21T06:35:32.124Z,98241.06
2023-04-21T06:38:01.175Z,98246.19
2023-04-21T06:40:30.203Z,98248.47
2023-04-21T06:42:59.245Z,98245.19
2023-04-21T06:45:28.309Z,98243.50
2023-04-21T06:47:58.752Z,98244.13
2023-04-21T06:50:27.867Z,98241.25
2023-04-21T06:52:56.907Z,98246.19
2023-04-21T06:55:27.165Z,98243.03
2023-04-21T06:57:56.214Z,98243.75
2023-04-21T07:00:25.244Z,98247.06
2023-04-21T07:02:54.334Z,98248.78
2023-04-21T07:05:24.767Z,98249.06
2023-04-21T07:07:55.911Z,98247.50
2023-04-21T07:10:25.115Z,98252.72
2023-04-21T07:12:54.268Z,98249.47
2023-04-21T07:15:23.542Z,98243.41
2023-04-21T07:17:52.942Z,98255.56
2023-04-21T07:20:22.150Z,98254.69
2023-04-21T07:22:52.587Z,98247.59
2023-04-21T07:25:21.880Z,98252.63
2023-04-21T07:27:50.947Z,98255.28
2023-04-21T07:30:19.942Z,98257.91
2023-04-21T07:32:49.036Z,98250.28
2023-04-21T07:35:18.710Z,98255.69
2023-04-21T07:37:48.196Z,98246.66
2023-04-21T07:40:18.766Z,98259.38
2023-04-21T07:42:47.926Z,98263.59
2023-04-21T07:45:16.973Z,98259.81
2023-04-21T07:47:46.395Z,98253.53
2023-04-21T07:50:15.485Z,98258.44
2023-04-21T07:52:44.501Z,98252.25
2023-04-21T07:55:13.490Z,98263.59
2023-04-21T07:57:44.075Z,98255.69
2023-04-21T08:00:15.270Z,98260.81
2023-04-21T08:02:44.588Z,98260.50
2023-04-21T08:05:13.832Z,98260.94
2023-04-21T08:07:42.926Z,98261.75
2023-04-21T08:10:12.491Z,98267.88
2023-04-21T08:12:41.508Z,98262.66
2023-04-21T08:15:12.595Z,98267.56
2023-04-21T08:17:41.809Z,98267.41
2023-04-21T08:20:12.279Z,98271.28
2023-04-21T08:22:41.412Z,98267.41
2023-04-21T08:25:10.980Z,98269.06
2023-04-21T08:27:40.597Z,98266.41
2023-04-21T08:30:13.003Z,98262.53
2023-04-21T08:32:42.216Z,98260.94
2023-04-21T08:35:11.888Z,98263.88
2023-04-21T08:37:41.796Z,98259.94
2023-04-21T08:40:12.278Z,98261.75
2023-04-21T08:42:41.422Z,98266.31
2023-04-21T08:45:13.006Z,98260.81
2023-04-21T08:47:42.986Z,98258.19
2023-04-21T08:50:15.619Z,98254.22
2023-04-21T08:52:44.860Z,98252.16
2023-04-21T08:55:15.204Z,98258.50
2023-04-21T08:57:44.222Z,98258.50
2023-04-21T09:00:16.172Z,98260.06
2023-04-21T09:03:00.956Z,98248.22
2023-04-21T09:05:33.424Z,98257.97
2023-04-21T09:08:11.019Z,98247.22
2023-04-21T09:10:47.455Z,98242.94
2023-04-21T09:13:17.720Z,98245.25
2023-04-21T09:15:51.530Z,98243.72
2023-04-21T09:18:22.583Z,98240.22
2023-04-21T09:21:08.678Z,98238.69
2023-04-21T09:23:43.414Z,98240.13
2023-04-21T09:26:13.257Z,98237.47
2023-04-21T09:28:43.905Z,98229.31
2023-04-21T09:31:20.404Z,98230.88
2023-04-21T09:33:57.711Z,98236.19
2023-04-21T09:36:31.978Z,98230.75
2023-04-21T09:41:35.587Z,98224.97
2023-04-21T09:44:04.972Z,98224.59
2023-04-21T09:46:38.043Z,98227.44
2023-04-21T09:49:07.319Z,98230.50
2023-04-21T09:52:05.894Z,98223.09
2023-04-21T09:54:32.491Z,98214.25
2023-04-21T09:57:03.269Z,98207.38
2023-04-21T09:59:36.703Z,98205.59
2023-04-21T10:02:09.277Z,98204.50
2023-04-21T10:04:42.458Z,98208.75
2023-04-21T10:07:12.630Z,98204.00
2023-04-21T10:09:49.335Z,98200.75
2023-04-21T10:12:20.406Z,98198.22
2023-04-21T10:14:53.766Z,98196.72
2023-04-21T10:17:27.534Z,98186.94
2023-04-21T10:19:58.631Z,98189.22
2023-04-21T10:22:30.076Z,98192.56
2023-04-21T10:25:01.284Z,98190.72
2023-04-21T10:27:35.933Z,98191.75
2023-04-21T10:30:21.249Z,98178.25
2023-04-21T10:33:04.523Z,98187.50
2023-04-21T10:36:05.097Z,98186.94
2023-04-21T10:38:42.644Z,98169.63
2023-04-21T10:41:33.686Z,98170.97
2023-04-21T10:44:13.171Z,98169.22
2023-04-21T10:46:47.473Z,98163.38
2023-04-21T10:49:25.530Z,98162.38
2023-04-21T10:52:09.280Z,98158.03
2023-04-21T10:54:45.945Z,98159.25
2023-04-21T10:57:17.282Z,98156.97
2023-04-21T10:59:47.691Z,98148.22
2023-04-21T11:02:19.015Z,98149.81
2023-04-21T11:04:53.215Z,98152.53
2023-04-21T11:07:24.272Z,98152.13
2023-04-21T11:10:00.175Z,98139.16
2023-04-21T11:12:31.400Z,98135.66
2023-04-21T11:15:00.503Z,98134.59
2023-04-21T11:17:29.695Z,98132.00
2023-04-21T11:20:00.183Z,98128.31
2023-04-21T11:22:29.213Z,98136.03
2023-04-21T11:25:00.225Z,98141.22
2023-04-21T11:27:30.844Z,98129.19
2023-04-21T11:30:00.128Z,98137.34
2023-04-21T11:32:31.939Z,98131.84
2023-04-21T11:35:02.496Z,98133.66
2023-04-21T11:37:31.961Z,98131.16
2023-04-21T11:40:02.886Z,98122.81
2023-04-21T11:42:32.408Z,98120.03
2023-04-21T11:45:02.275Z,98114.88
2023-04-21T11:47:31.423Z,98107.97
2023-04-21T11:50:04.147Z,98117.94
2023-04-21T11:52:37.388Z,98115.31
2023-04-21T11:55:12.365Z,98115.47
2023-04-21T11:57:42.016Z,98115.28
2023-04-21T12:00:14.084Z,98108.78
2023-04-21T12:02:44.737Z,98111.44
2023-04-21T12:05:15.624Z,98109.75
2023-04-21T12:07:46.344Z,98103.47
2023-04-21T12:10:18.859Z,98104.16
2023-04-21T12:12:48.606Z,98099.03
2023-04-21T12:15:21.650Z,98100.53
2023-04-21T12:17:54.475Z,98096.94
2023-04-21T12:20:26.684Z,98098.56
2023-04-21T12:22:56.562Z,98103.16
2023-04-21T12:25:25.742Z,98099.44
2023-04-21T12:27:59.628Z,98095.63
2023-04-21T12:30:28.790Z,98089.69
2023-04-21T12:32:58.076Z,98088.59
2023-04-21T12:35:28.923Z,98087.66
2023-04-21T12:37:59.177Z,98081.50
2023-04-21T12:40:28.281Z,98079.69
2023-04-21T12:42:57.211Z,98075.47
2023-04-21T12:45:26.679Z,98075.13
2023-04-21T12:47:58.288Z,98069.50
2023-04-21T12:50:28.810Z,98067.41
2023-04-21T12:52:58.079Z,98067.53
2023-04-21T12:55:27.156Z,98068.47
2023-04-21T12:57:56.290Z,98059.56
2023-04-21T13:00:25.568Z,98058.94
2023-04-21T13:02:54.629Z,98051.19
2023-04-21T13:05:23.686Z,98050.81
2023-04-21T13:07:54.362Z,98050.81
2023-04-21T13:10:23.526Z,98051.59
2023-04-21T13:12:52.571Z,98045.16
2023-04-21T13:15:21.628Z,98047.63
2023-04-21T13:17:50.642Z,98041.50
2023-04-21T13:20:20.460Z,98048.25
2023-04-21T13:22:49.750Z,98039.31
2023-04-21T13:25:20.091Z,98040.69
2023-04-21T13:27:49.185Z,98042.25
2023-04-21T13:30:18.602Z,98038.88
2023-04-21T13:32:50.665Z,98033.56
2023-04-21T13:35:19.866Z,98033.72
2023-04-21T13:37:50.056Z,98033.22
2023-04-21T13:40:20.589Z,98029.97
2023-04-21T13:42:49.640Z,98033.56
2023-04-21T13:45:18.839Z,98033.06
2023-04-21T13:47:47.956Z,98027.81
2023-04-21T13:50:17.115Z,98030.09
2023-04-21T13:52:46.119Z,98025.88
2023-04-21T13:55:15.082Z,98021.34
2023-04-21T13:57:45.998Z,98027.31
2023-04-21T14:00:16.369Z,98028.88
2023-04-21T14:02:45.617Z,98022.41
2023-04-21T14:05:14.839Z,98022.63
2023-04-21T14:07:44.829Z,98012.31
2023-04-21T14:10:13.862Z,98027.25
2023-04-21T14:12:45.004Z,98023.63
2023-04-21T14:15:15.565Z,98009.69
2023-04-21T14:17:44.874Z,98011.59
2023-04-21T14:20:14.002Z,98009.94
2023-04-21T14:22:43.123Z,98002.44
2023-04-21T14:25:12.231Z,97999.34
2023-04-21T14:27:41.477Z,97999.16
2023-04-21T14:30:12.279Z,98001.84
2023-04-21T14:32:45.749Z,97998.25
2023-04-21T14:35:15.532Z,98001.75
2023-04-21T14:37:44.711Z,98003.78
2023-04-21T14:40:13.853Z,97998.91
2023-04-21T14:42:42.986Z,97992.34
2023-04-21T14:45:13.164Z,97993.22
2023-04-21T14:47:44.220Z,97988.38
2023-04-21T14:50:13.450Z,97983.13
2023-04-21T14:52:42.743Z,97990.22
2023-04-21T14:55:12.121Z,97990.38
2023-04-21T14:57:41.165Z,97974.72
2023-04-21T15:00:14.710Z,97992.22
2023-04-21T15:02:45.299Z,97986.19
2023-04-21T15:05:14.544Z,97975.97
2023-04-21T15:07:43.742Z,97983.63
2023-04-21T15:10:14.134Z,97984.69
2023-04-21T15:12:44.193Z,97978.19
2023-04-21T15:15:13.590Z,97985.41
2023-04-21T15:17:44.366Z,97985.97
2023-04-21T15:20:13.634Z,97988.41
2023-04-21T15:22:43.098Z,97988.84
2023-04-21T15:25:12.189Z,97983.09
2023-04-21T15:27:41.173Z,97992.44
2023-04-21T15:30:12.061Z,97991.44
2023-04-21T15:32:48.499Z,97989.84
2023-04-21T15:35:17.819Z,97985.50
2023-04-21T15:37:46.859Z,97981.22
2023-04-21T15:40:16.319Z,97983.44
2023-04-21T15:42:45.452Z,97980.38
2023-04-21T15:45:17.804Z,97983.03
2023-04-21T15:47:48.361Z,97981.53
2023-04-21T15:50:17.807Z,97982.78
2023-04-21T15:52:47.136Z,97987.84
2023-04-21T15:55:16.590Z,97979.63
2023-04-21T15:57:46.964Z,97986.44
2023-04-21T16:00:17.572Z,97982.47
2023-04-21T16:02:49.782Z,97986.06
2023-04-21T16:05:20.034Z,97979.56
2023-04-21T16:07:49.656Z,97972.31
2023-04-21T16:10:18.991Z,97974.84
2023-04-21T16:12:50.961Z,97977.38
2023-04-21T16:15:23.532Z,97976.72
2023-04-21T16:17:55.458Z,97970.72
2023-04-21T16:20:24.754Z,97973.66
2023-04-21T16:22:56.827Z,97960.31
2023-04-21T16:25:27.238Z,97976.34
2023-04-21T16:27:56.461Z,97975.84
2023-04-21T16:30:26.335Z,97982.81
2023-04-21T16:32:57.125Z,97986.44
2023-04-21T16:35:26.364Z,97993.06
2023-04-21T16:37:55.503Z,97981.63
2023-04-21T16:40:25.159Z,97982.47
2023-04-21T16:42:54.366Z,97978.56
2023-04-21T16:45:23.434Z,97986.41
2023-04-21T16:47:52.838Z,97979.63
2023-04-21T16:50:23.678Z,97976.44
2023-04-21T16:52:52.895Z,97976.91
2023-04-21T16:55:22.139Z,97983.94
2023-04-21T16:57:51.258Z,97975.97
2023-04-21T17:00:21.481Z,97978.41
2023-04-21T17:02:50.742Z,97974.28
2023-04-21T17:05:19.979Z,97970.91
2023-04-21T17:07:51.313Z,97964.00
2023-04-21T17:10:20.511Z,97963.19
2023-04-21T17:12:49.541Z,97965.69
2023-04-21T17:15:18.697Z,97974.16
2023-04-21T17:17:48.707Z,97976.47
2023-04-21T17:20:18.204Z,97968.41
2023-04-21T17:22:47.457Z,97974.28
2023-04-21T17:25:17.892Z,97967.00
2023-04-21T17:27:46.893Z,97970.66
2023-04-21T17:30:21.549Z,97964.28
2023-04-21T17:33:00.533Z,97977.06
2023-04-21T17:35:41.494Z,97973.59
2023-04-21T17:38:14.978Z,97980.59
2023-04-21T17:40:45.521Z,97979.69
2023-04-21T17:43:14.604Z,97985.50
2023-04-21T17:45:43.611Z,97983.00
2023-04-21T17:48:12.875Z,97986.28
2023-04-21T17:50:44.788Z,97984.47
2023-04-21T17:53:13.875Z,97992.50
2023-04-21T17:55:44.466Z,97994.28
2023-04-21T17:58:13.568Z,97988.94
2023-04-21T18:00:43.916Z,97989.78
2023-04-21T18:03:13.123Z,97996.03
2023-04-21T18:05:42.450Z,97989.94
2023-04-21T18:08:11.582Z,97993.66
2023-04-21T18:10:40.933Z,97992.50
2023-04-21T18:13:11.574Z,97987.63
2023-04-21T18:15:41.230Z,97993.25
2023-04-21T18:18:10.690Z,98000.34
2023-04-21T18:20:40.635Z,97991.34
2023-04-21T18:23:09.972Z,97995.75
2023-04-21T18:25:42.635Z,97995.91
2023-04-21T18:28:14.382Z,97994.75
2023-04-21T18:30:43.673Z,97996.41
2023-04-21T18:33:12.725Z,98007.53
2023-04-21T18:35:43.059Z,98003.34
2023-04-21T18:38:13.569Z,98008.94
2023-04-21T18:40:43.109Z,98005.03
2023-04-21T18:43:13.616Z,98000.69
2023-04-21T18:45:42.700Z,98008.19
2023-04-21T18:48:11.725Z,98006.16
2023-04-21T18:50:41.204Z,98001.50
2023-04-21T18:53:10.541Z,98006.56
2023-04-21T18:55:39.601Z,98003.94
2023-04-21T18:58:08.680Z,98002.84
2023-04-21T19:00:39.381Z,98004.94
2023-04-21T19:03:09.294Z,98006.16
2023-04-21T19:05:40.594Z,98008.59
2023-04-21T19:08:11.086Z,98020.22
2023-04-21T19:10:41.067Z,98015.25
2023-04-21T19:13:11.218Z,98014.06
2023-04-21T19:15:41.661Z,98008.19
2023-04-21T19:18:10.834Z,98003.72
2023-04-21T19:20:39.862Z,98007.75
2023-04-21T19:23:09.440Z,98016.69
2023-04-21T19:25:38.486Z,98017.09
2023-04-21T19:28:07.900Z,98009.53
2023-04-21T19:30:37.029Z,98011.59
2023-04-21T19:33:07.570Z,98018.22
2023-04-21T19:35:37.403Z,98011.13
2023-04-21T19:38:06.924Z,98022.91
2023-04-21T19:40:35.980Z,98023.72
2023-04-21T19:43:05.493Z,98014.44
2023-04-21T19:45:34.582Z,98008.75
2023-04-21T19:48:04.475Z,98012.16
2023-04-21T19:50:36.558Z,98018.88
2023-04-21T19:53:06.390Z,98010.31
2023-04-21T19:55:35.866Z,98010.34
2023-04-21T19:58:05.127Z,98003.25
2023-04-21T20:00:34.264Z,98008.81
2023-04-21T20:03:03.581Z,98000.09
2023-04-21T20:05:34.760Z,98004.81
2023-04-21T20:08:03.764Z,98004.72
2023-04-21T20:10:32.784Z,98003.25
2023-04-21T20:13:02.066Z,97996.06
2023-04-21T20:15:31.398Z,98004.13
2023-04-21T20:18:00.729Z,98001.16
2023-04-21T20:20:30.852Z,98008.66
2023-04-21T20:23:01.340Z,98003.81
2023-04-21T20:25:30.782Z,98010.25
2023-04-21T20:27:59.863Z,98012.91
2023-04-21T20:30:28.923Z,98005.31
2023-04-21T20:32:57.894Z,98002.66
2023-04-21T20:35:27.184Z,98010.41
2023-04-21T20:37:56.835Z,98021.16
2023-04-21T20:40:27.366Z,98021.56
2023-04-21T20:42:56.439Z,98010.81
2023-04-21T20:45:26.235Z,98011.25
2023-04-21T20:47:55.543Z,98015.53
2023-04-21T20:50:25.964Z,98011.00
2023-04-21T20:52:55.090Z,98013.38
2023-04-21T20:55:24.554Z,98020.91
2023-04-21T20:57:55.371Z,98012.50
2023-04-21T21:00:24.825Z,98013.34
2023-04-21T21:02:53.945Z,98014.69
2023-04-21T21:05:23.166Z,98023.59
2023-04-21T21:07:52.235Z,98016.19
2023-04-21T21:10:21.282Z,98013.03
2023-04-21T21:12:50.308Z,98022.63
2023-04-21T21:15:20.675Z,98025.78
2023-04-21T21:17:49.926Z,98021.72
2023-04-21T21:20:19.133Z,98024.09
2023-04-21T21:22:48.282Z,98023.31
2023-04-21T21:25:17.496Z,98030.53
2023-04-21T21:27:46.652Z,98029.00
2023-04-21T21:30:16.374Z,98036.22
2023-04-21T21:32:47.796Z,98027.53
2023-04-21T21:35:17.087Z,98029.94
2023-04-21T21:37:46.896Z,98035.56
2023-04-21T21:40:16.205Z,98030.84
2023-04-21T21:42:45.268Z,98028.03
2023-04-21T21:45:14.687Z,98034.84
2023-04-21T21:47:45.614Z,98037.25
2023-04-21T21:50:16.647Z,98035.63
2023-04-21T21:52:45.661Z,98047.63
2023-04-21T21:55:14.626Z,98043.63
2023-04-21T21:57:43.961Z,98041.28
2023-04-21T22:00:14.341Z,98038.06
2023-04-21T22:02:44.009Z,98045.16
2023-04-21T22:05:13.763Z,98053.25
2023-04-21T22:07:44.198Z,98051.19
2023-04-21T22:10:13.212Z,98052.41
2023-04-21T22:12:42.448Z,98046.03
2023-04-21T22:15:13.759Z,98045.25
2023-04-21T22:17:45.775Z,98036.53
2023-04-21T22:20:18.426Z,98036.13
2023-04-21T22:22:49.256Z,98038.13
2023-04-21T22:25:18.546Z,98037.72
2023-04-21T22:27:47.537Z,98037.34
2023-04-21T22:30:16.544Z,98043.34
2023-04-21T22:32:45.653Z,98045.38
2023-04-21T22:35:14.758Z,98045.00
2023-04-21T22:37:44.034Z,98035.84
2023-04-21T22:40:14.889Z,98041.47
2023-04-21T22:42:43.954Z,98041.84
2023-04-21T22:45:13.261Z,98037.84
2023-04-21T22:47:42.475Z,98040.22
2023-04-21T22:50:12.184Z,98033.41
2023-04-21T22:52:41.162Z,98043.84
2023-04-21T22:55:11.445Z,98034.25
2023-04-21T22:57:42.078Z,98046.22
2023-04-21T23:00:11.971Z,98045.44
2023-04-21T23:02:41.093Z,98041.03
2023-04-21T23:05:11.165Z,98042.22
2023-04-21T23:07:40.129Z,98043.06
2023-04-21T23:10:09.689Z,98049.44
2023-04-21T23:12:38.912Z,98042.25
2023-04-21T23:15:11.523Z,98041.44
2023-04-21T23:17:42.722Z,98045.44
2023-04-21T23:20:12.892Z,98052.63
2023-04-21T23:22:42.232Z,98045.84
2023-04-21T23:25:11.889Z,98039.84
2023-04-21T23:27:41.091Z,98047.03
2023-04-21T23:30:13.478Z,98044.63
2023-04-21T23:32:43.675Z,98046.19
2023-04-21T23:35:12.800Z,98044.59
2023-04-21T23:37:41.896Z,98048.56
2023-04-21T23:40:12.673Z,98049.38
2023-04-21T23:42:41.876Z,98045.41
2023-04-21T23:45:18.025Z,98045.44
2023-04-21T23:47:47.133Z,98040.25
2023-04-21T23:50:16.177Z,98043.84
2023-04-21T23:52:45.824Z,98030.28
2023-04-21T23:55:15.188Z,98029.44
2023-04-21T23:57:46.810Z,98042.97
